Time;durP1;ratioP1;P1;durP2;ratioP2;P2;SDS_P1;SDS_P2;PMS_P1;PMS_P2;Temp;Humidity;BMP_temperature;BMP_pressure;BME280_temperature;BME280_humidity;BME280_pressure;Samples;Min_cycle;Max_cycle;Signal;HPM_P1;HPM_P2
2022/03/27 00:01:38;;;;;;;;;;;;;;;7.45;70.67;101911.97;5027500;28;2466;-96
2022/03/27 00:04:04;;;;;;;;;;;;;;;7.45;70.34;101911.97;5017319;28;1467;-96
2022/03/27 00:06:31;;;;;;;;;;;;;;;7.43;70.57;101913.97;5018120;28;1161;-96
2022/03/27 00:08:57;;;;;;;;;;;;;;;7.43;70.38;101913.97;5035013;28;1341;-96
2022/03/27 00:11:28;;;;;;;;;;;;;;;7.43;70.26;101927.38;5012184;28;2588;-95
2022/03/27 00:13:55;;;;;;;;;;;;;;;7.41;70.41;101922.19;5008409;28;2822;-96
2022/03/27 00:16:21;;;;;;;;;;;;;;;7.41;70.07;101930.22;5025302;28;2791;-96
2022/03/27 00:18:48;;;;;;;;;;;;;;;7.40;70.49;101917.81;5023305;28;1288;-96
2022/03/27 00:21:15;;;;;;;;;;;;;;;7.41;70.38;101924.00;5020475;28;1768;-96
2022/03/27 00:23:43;;;;;;;;;;;;;;;7.39;70.07;101926.88;5033904;28;1888;-96
2022/03/27 00:26:10;;;;;;;;;;;;;;;7.39;70.43;101923.34;5029071;28;2716;-96
2022/03/27 00:28:36;;;;;;;;;;;;;;;7.37;70.06;101914.63;5012490;28;2771;-96
2022/03/27 00:31:04;;;;;;;;;;;;;;;7.37;70.44;101915.47;5004649;28;3540;-96
2022/03/27 00:33:31;;;;;;;;;;;;;;;7.36;69.96;101923.69;5015233;28;2616;-96
2022/03/27 00:35:57;;;;;;;;;;;;;;;7.35;70.38;101927.34;5018558;28;3746;-96
2022/03/27 00:38:24;;;;;;;;;;;;;;;7.35;70.01;101938.06;5028871;28;2274;-96
2022/03/27 00:40:51;;;;;;;;;;;;;;;7.34;70.30;101931.03;5015306;28;3688;-96
2022/03/27 00:43:18;;;;;;;;;;;;;;;7.32;70.44;101939.25;5031658;28;3704;-96
2022/03/27 00:45:45;;;;;;;;;;;;;;;7.33;69.88;101954.34;5017175;28;1195;-96
2022/03/27 00:48:12;;;;;;;;;;;;;;;7.31;69.86;101959.00;5024047;28;2881;-96
2022/03/27 00:50:38;;;;;;;;;;;;;;;7.32;70.25;101938.41;5011294;28;2301;-96
2022/03/27 00:53:05;;;;;;;;;;;;;;;7.30;70.14;101933.22;5011293;28;3847;-95
2022/03/27 00:55:32;;;;;;;;;;;;;;;7.28;70.00;101938.72;5012597;28;2150;-96
2022/03/27 00:57:59;;;;;;;;;;;;;;;7.28;69.82;101929.84;5014068;28;4216;-96
2022/03/27 01:00:25;;;;;;;;;;;;;;;7.28;69.90;101924.50;5012109;28;3721;-96
2022/03/27 01:02:54;;;;;;;;;;;;;;;7.26;69.94;101907.75;5013230;28;1364;-96
2022/03/27 01:05:21;;;;;;;;;;;;;;;7.26;69.83;101924.69;5016333;28;3876;-96
2022/03/27 01:07:47;;;;;;;;;;;;;;;7.25;69.65;101906.91;5002961;28;3731;-96
2022/03/27 01:10:13;;;;;;;;;;;;;;;7.25;70.17;101896.19;5009688;28;4143;-96
2022/03/27 01:12:40;;;;;;;;;;;;;;;7.24;70.08;101891.00;5008230;28;3777;-96
2022/03/27 01:15:07;;;;;;;;;;;;;;;7.23;69.72;101892.81;5010032;28;2381;-96
2022/03/27 01:17:33;;;;;;;;;;;;;;;7.22;69.71;101895.69;5011797;28;3620;-96
2022/03/27 01:20:00;;;;;;;;;;;;;;;7.21;70.06;101891.34;4996719;28;1202;-96
2022/03/27 01:22:27;;;;;;;;;;;;;;;7.20;70.15;101886.97;5012420;28;2032;-96
2022/03/27 01:24:53;;;;;;;;;;;;;;;7.20;69.81;101886.97;5013557;28;1968;-96
2022/03/27 01:27:20;;;;;;;;;;;;;;;7.19;70.03;101880.78;5014030;28;1375;-96
2022/03/27 01:29:47;;;;;;;;;;;;;;;7.18;70.01;101868.38;5002164;28;4504;-96
2022/03/27 01:32:14;;;;;;;;;;;;;;;7.17;70.04;101855.97;4994406;28;1261;-96
2022/03/27 01:34:40;;;;;;;;;;;;;;;7.18;70.12;101856.84;5009852;28;4440;-96
2022/03/27 01:37:07;;;;;;;;;;;;;;;7.16;69.78;101850.78;5011429;28;3662;-96
2022/03/27 01:39:33;;;;;;;;;;;;;;;7.16;69.95;101865.03;4997204;28;4232;-96
2022/03/27 01:42:00;;;;;;;;;;;;;;;7.14;69.90;101861.66;5010781;28;1983;-96
2022/03/27 01:44:26;;;;;;;;;;;;;;;7.15;69.80;101851.81;4996201;28;1993;-96
2022/03/27 01:46:55;;;;;;;;;;;;;;;7.14;69.89;101852.78;5030574;28;2066;-96
2022/03/27 01:49:22;;;;;;;;;;;;;;;7.13;69.64;101843.09;5017133;28;3448;-96
2022/03/27 01:51:48;;;;;;;;;;;;;;;7.11;69.89;101851.28;5017040;28;1270;-96
2022/03/27 01:54:15;;;;;;;;;;;;;;;7.12;69.47;101854.78;5013075;28;2091;-96
2022/03/27 01:56:42;;;;;;;;;;;;;;;7.10;69.84;101841.56;4997548;28;1160;-96
2022/03/27 01:59:09;;;;;;;;;;;;;;;7.11;69.64;101826.34;5002909;28;3777;-96
2022/03/27 02:01:36;;;;;;;;;;;;;;;7.09;69.93;101804.22;5016302;28;2119;-96
2022/03/27 02:04:03;;;;;;;;;;;;;;;7.09;69.77;101798.88;5015539;28;3856;-96
2022/03/27 02:06:30;;;;;;;;;;;;;;;7.09;69.96;101790.81;5006944;28;3741;-96
2022/03/27 02:08:56;;;;;;;;;;;;;;;7.08;69.90;101787.31;5000789;28;1196;-96
2022/03/27 02:11:23;;;;;;;;;;;;;;;7.07;69.86;101777.63;5008635;28;3811;-96
2022/03/27 02:13:50;;;;;;;;;;;;;;;7.07;69.68;101766.06;5012926;28;1972;-96
2022/03/27 02:16:17;;;;;;;;;;;;;;;7.07;69.73;101768.75;5010777;28;3844;-96
2022/03/27 02:18:43;;;;;;;;;;;;;;;7.05;69.60;101764.38;5016052;28;1982;-96
2022/03/27 02:21:10;;;;;;;;;;;;;;;7.04;69.58;101762.72;5028789;28;4100;-96
2022/03/27 02:23:36;;;;;;;;;;;;;;;7.04;69.84;101765.38;5010135;28;3890;-96
2022/03/27 02:26:03;;;;;;;;;;;;;;;7.03;69.61;101755.69;5016496;28;1390;-96
2022/03/27 02:28:30;;;;;;;;;;;;;;;7.01;69.71;101757.69;5014523;28;3464;-96
2022/03/27 02:30:56;;;;;;;;;;;;;;;7.01;69.49;101755.00;5000885;28;1328;-96
2022/03/27 02:33:24;;;;;;;;;;;;;;;7.00;69.81;101737.28;5030924;28;3648;-96
2022/03/27 02:35:50;;;;;;;;;;;;;;;7.00;69.32;101725.69;5015176;28;3690;-96
2022/03/27 02:38:17;;;;;;;;;;;;;;;6.99;69.52;101734.75;5032611;28;4183;-96
2022/03/27 02:40:43;;;;;;;;;;;;;;;6.97;69.71;101720.66;5011548;28;2019;-96
2022/03/27 02:43:10;;;;;;;;;;;;;;;6.96;69.50;101719.84;4999658;28;1545;-96
2022/03/27 02:45:37;;;;;;;;;;;;;;;6.95;69.72;101715.50;5027188;28;3728;-96
2022/03/27 02:48:03;;;;;;;;;;;;;;;6.95;69.46;101728.88;5014488;28;3685;-96
2022/03/27 02:50:30;;;;;;;;;;;;;;;6.95;69.31;101723.53;4998882;28;4036;-95
2022/03/27 02:52:57;;;;;;;;;;;;;;;6.94;69.50;101715.66;5015996;28;3705;-96
2022/03/27 02:55:24;;;;;;;;;;;;;;;6.93;69.73;101714.81;5019153;28;2041;-96
2022/03/27 02:57:50;;;;;;;;;;;;;;;6.92;69.57;101712.31;5017156;28;3828;-96
2022/03/27 03:00:17;;;;;;;;;;;;;;;6.91;69.58;101719.53;5018448;28;1883;-96
2022/03/27 03:02:44;;;;;;;;;;;;;;;6.90;69.42;101712.47;5004528;28;3858;-96
2022/03/27 03:05:10;;;;;;;;;;;;;;;6.90;69.21;101717.84;5013892;28;3684;-96
2022/03/27 03:07:37;;;;;;;;;;;;;;;6.89;69.54;101720.69;5030411;28;4199;-96
2022/03/27 03:10:04;;;;;;;;;;;;;;;6.89;69.52;101726.03;5000052;28;3523;-96
2022/03/27 03:12:30;;;;;;;;;;;;;;;6.88;69.51;101735.06;5018849;28;1593;-96
2022/03/27 03:14:57;;;;;;;;;;;;;;;6.87;69.24;101717.34;5011694;28;2564;-96
2022/03/27 03:17:23;;;;;;;;;;;;;;;6.86;69.54;101702.28;5015401;28;3382;-96
2022/03/27 03:19:50;;;;;;;;;;;;;;;6.85;69.51;101696.06;5015485;28;1289;-96
2022/03/27 03:22:17;;;;;;;;;;;;;;;6.83;69.02;101688.22;5023729;28;2802;-96
2022/03/27 03:24:43;;;;;;;;;;;;;;;6.82;69.10;101685.69;5018601;28;1488;-96
2022/03/27 03:27:10;;;;;;;;;;;;;;;6.82;69.15;101670.47;5015652;28;3785;-96
2022/03/27 03:29:36;;;;;;;;;;;;;;;6.80;69.41;101644.88;5017989;28;3624;-96
2022/03/27 03:32:03;;;;;;;;;;;;;;;6.79;69.50;101652.06;5016162;28;3798;-96
2022/03/27 03:34:30;;;;;;;;;;;;;;;6.78;69.51;101650.38;5028953;28;3796;-96
2022/03/27 03:36:56;;;;;;;;;;;;;;;6.77;69.40;101656.75;5015678;28;1347;-95
2022/03/27 03:39:22;;;;;;;;;;;;;;;6.77;69.08;101659.44;5021222;28;3813;-96
2022/03/27 03:41:49;;;;;;;;;;;;;;;6.79;69.29;101660.09;5017087;28;2242;-96
2022/03/27 03:44:15;;;;;;;;;;;;;;;6.76;69.00;101659.59;5016727;28;1901;-96
2022/03/27 03:46:42;;;;;;;;;;;;;;;6.75;69.09;101655.25;5015296;28;3538;-96
2022/03/27 03:49:08;;;;;;;;;;;;;;;6.74;69.25;101649.06;5030044;28;1538;-96
2022/03/27 03:51:35;;;;;;;;;;;;;;;6.75;69.27;101663.28;5027192;28;3907;-96
2022/03/27 03:54:02;;;;;;;;;;;;;;;6.74;69.18;101664.28;5009604;28;1914;-96
2022/03/27 03:56:29;;;;;;;;;;;;;;;6.72;68.96;101659.09;5016150;28;3374;-96
2022/03/27 03:58:56;;;;;;;;;;;;;;;6.72;69.01;101653.72;5016500;28;3440;-96
2022/03/27 04:01:22;;;;;;;;;;;;;;;6.71;68.92;101648.56;5013394;28;1704;-96
2022/03/27 04:03:49;;;;;;;;;;;;;;;6.70;69.03;101658.41;5013217;28;3768;-96
2022/03/27 04:06:16;;;;;;;;;;;;;;;6.68;68.97;101641.69;5016223;28;1470;-96
2022/03/27 04:08:42;;;;;;;;;;;;;;;6.67;69.16;101641.84;5031700;28;4496;-96
2022/03/27 04:11:14;;;;;;;;;;;;;;;6.67;69.13;101652.56;5017451;28;1205;-96
2022/03/27 04:13:41;;;;;;;;;;;;;;;6.66;69.13;101654.41;5028069;28;3910;-96
2022/03/27 04:16:08;;;;;;;;;;;;;;;6.64;69.08;101642.19;5009393;28;3562;-96
2022/03/27 04:18:35;;;;;;;;;;;;;;;6.62;68.88;101647.72;5017904;28;1310;-96
2022/03/27 04:21:02;;;;;;;;;;;;;;;6.63;69.01;101651.22;5013156;28;3729;-96
2022/03/27 04:23:30;;;;;;;;;;;;;;;6.62;69.25;101673.63;4998910;28;1174;-96
2022/03/27 04:25:56;;;;;;;;;;;;;;;6.61;68.92;101662.09;5012938;28;3729;-96
2022/03/27 04:28:23;;;;;;;;;;;;;;;6.59;69.06;101659.59;5001725;28;3519;-96
2022/03/27 04:30:50;;;;;;;;;;;;;;;6.57;68.89;101640.19;5017517;28;1226;-96
2022/03/27 04:33:17;;;;;;;;;;;;;;;6.56;69.00;101638.50;5012620;28;3848;-95
2022/03/27 04:35:43;;;;;;;;;;;;;;;6.53;69.14;101633.50;5019988;28;1911;-96
2022/03/27 04:38:10;;;;;;;;;;;;;;;6.52;68.92;101629.13;5016470;28;3683;-96
2022/03/27 04:40:36;;;;;;;;;;;;;;;6.52;69.12;101623.78;5015762;28;3717;-96
2022/03/27 04:43:03;;;;;;;;;;;;;;;6.51;69.03;101627.47;5017261;28;1947;-96
2022/03/27 04:45:30;;;;;;;;;;;;;;;6.50;69.35;101641.00;5022506;28;3823;-96
2022/03/27 04:47:57;;;;;;;;;;;;;;;6.48;69.12;101641.19;5002227;28;1327;-96
2022/03/27 04:50:24;;;;;;;;;;;;;;;6.48;69.05;101630.47;5024574;28;2011;-96
2022/03/27 04:52:50;;;;;;;;;;;;;;;6.47;69.19;101627.94;5017461;28;1538;-96
2022/03/27 04:55:17;;;;;;;;;;;;;;;6.46;68.90;101626.28;5007788;28;2990;-95
2022/03/27 04:57:43;;;;;;;;;;;;;;;6.45;69.04;101617.44;5013342;28;3763;-96
2022/03/27 05:00:10;;;;;;;;;;;;;;;6.45;69.31;101620.09;5016895;28;1399;-96
2022/03/27 05:02:37;;;;;;;;;;;;;;;6.43;68.99;101614.06;5020761;28;3786;-95
2022/03/27 05:05:04;;;;;;;;;;;;;;;6.42;69.21;101608.91;4997868;28;1213;-96
2022/03/27 05:07:30;;;;;;;;;;;;;;;6.39;68.95;101607.41;4998487;28;3791;-96
2022/03/27 05:09:57;;;;;;;;;;;;;;;6.39;69.14;101606.56;5004658;28;1952;-96
2022/03/27 05:12:24;;;;;;;;;;;;;;;6.39;69.16;101603.88;5016591;28;4207;-96
2022/03/27 05:14:51;;;;;;;;;;;;;;;6.36;69.35;101605.88;5014384;28;3666;-96
2022/03/27 05:17:17;;;;;;;;;;;;;;;6.36;69.16;101602.38;5017126;28;1184;-96
2022/03/27 05:19:44;;;;;;;;;;;;;;;6.33;68.96;101595.50;5011485;28;3987;-96
2022/03/27 05:22:11;;;;;;;;;;;;;;;6.33;69.29;101590.16;5027173;28;3535;-95
2022/03/27 05:24:37;;;;;;;;;;;;;;;6.32;68.86;101598.34;5017553;28;1196;-96
2022/03/27 05:27:04;;;;;;;;;;;;;;;6.30;69.07;101601.19;5006367;28;3910;-96
2022/03/27 05:29:31;;;;;;;;;;;;;;;6.29;69.30;101593.31;5031906;28;1456;-95
2022/03/27 05:31:58;;;;;;;;;;;;;;;6.29;69.23;101604.03;5034839;28;3709;-96
2022/03/27 05:34:24;;;;;;;;;;;;;;;6.26;68.99;101597.16;5021203;28;1906;-96
2022/03/27 05:36:51;;;;;;;;;;;;;;;6.26;69.39;101597.16;5018797;28;3828;-95
2022/03/27 05:39:17;;;;;;;;;;;;;;;6.26;69.03;101596.34;5015830;28;3683;-96
2022/03/27 05:41:44;;;;;;;;;;;;;;;6.24;68.81;101587.66;5016486;28;4094;-96
2022/03/27 05:44:11;;;;;;;;;;;;;;;6.22;69.15;101587.81;5020569;28;3715;-96
2022/03/27 05:46:37;;;;;;;;;;;;;;;6.22;69.17;101586.97;5021873;28;1193;-96
2022/03/27 05:49:04;;;;;;;;;;;;;;;6.21;69.24;101583.47;5013735;28;3800;-96
2022/03/27 05:51:30;;;;;;;;;;;;;;;6.20;69.26;101594.31;5018681;28;3695;-95
2022/03/27 05:53:57;;;;;;;;;;;;;;;6.18;69.25;101583.81;5020277;28;4049;-95
2022/03/27 05:56:26;;;;;;;;;;;;;;;6.17;68.96;101573.25;5017028;28;3876;-96
2022/03/27 05:58:53;;;;;;;;;;;;;;;6.16;69.21;101575.09;5005651;28;1317;-95
2022/03/27 06:01:20;;;;;;;;;;;;;;;6.16;69.29;101579.63;5026605;28;4340;-96
2022/03/27 06:03:46;;;;;;;;;;;;;;;6.14;69.05;101583.28;5009762;28;2027;-96
2022/03/27 06:06:14;;;;;;;;;;;;;;;6.13;69.28;101575.44;5015362;28;4188;-96
2022/03/27 06:08:40;;;;;;;;;;;;;;;6.13;68.87;101591.47;5020993;28;3724;-96
2022/03/27 06:11:07;;;;;;;;;;;;;;;6.11;69.03;101583.59;5016025;28;1502;-95
2022/03/27 06:13:34;;;;;;;;;;;;;;;6.11;68.96;101580.09;5012126;28;3973;-96
2022/03/27 06:16:00;;;;;;;;;;;;;;;6.10;69.06;101595.31;5022037;28;2395;-95
2022/03/27 06:18:27;;;;;;;;;;;;;;;6.10;69.18;101595.31;5016936;28;3837;-96
2022/03/27 06:20:53;;;;;;;;;;;;;;;6.08;69.12;101591.13;5016263;28;3758;-96
2022/03/27 06:23:20;;;;;;;;;;;;;;;6.08;68.79;101578.59;5001118;28;3815;-96
2022/03/27 06:25:47;;;;;;;;;;;;;;;6.07;68.92;101586.78;5017793;28;3401;-96
2022/03/27 06:28:13;;;;;;;;;;;;;;;6.07;69.08;101584.13;5019998;28;1336;-96
2022/03/27 06:30:40;;;;;;;;;;;;;;;6.05;69.18;101578.91;5034327;28;3592;-96
2022/03/27 06:33:07;;;;;;;;;;;;;;;6.04;69.20;101571.91;5017807;28;3456;-96
2022/03/27 06:35:34;;;;;;;;;;;;;;;6.04;68.99;101571.06;5028640;28;3927;-96
2022/03/27 06:38:00;;;;;;;;;;;;;;;6.04;69.12;101571.06;5015850;28;3799;-95
2022/03/27 06:40:27;;;;;;;;;;;;;;;6.04;69.08;101573.75;5011837;28;1238;-96
2022/03/27 06:42:54;;;;;;;;;;;;;;;6.02;68.84;101571.22;5014585;28;3769;-96
2022/03/27 06:45:22;;;;;;;;;;;;;;;6.02;68.74;101571.22;5027514;28;2213;-95
2022/03/27 06:47:49;;;;;;;;;;;;;;;6.02;69.07;101576.56;5002057;28;3779;-96
2022/03/27 06:50:16;;;;;;;;;;;;;;;6.03;68.72;101572.06;5002095;28;3429;-96
2022/03/27 06:52:42;;;;;;;;;;;;;;;6.01;68.87;101569.56;5018997;28;4110;-96
2022/03/27 06:55:09;;;;;;;;;;;;;;;6.02;68.82;101573.06;5017661;28;3350;-96
2022/03/27 06:57:36;;;;;;;;;;;;;;;6.01;68.73;101560.72;5002703;28;2617;-96
2022/03/27 07:03:06;;;;;;;;;;;;;;;6.01;68.61;101560.72;5014484;28;3491;-96
2022/03/27 07:05:34;;;;;;;;;;;;;;;5.99;68.71;101568.06;5007590;28;1185;-96
2022/03/27 07:08:01;;;;;;;;;;;;;;;5.98;68.60;101561.88;5020643;28;3799;-96
2022/03/27 07:10:27;;;;;;;;;;;;;;;5.98;68.61;101561.03;5014100;28;4760;-96
2022/03/27 07:12:54;;;;;;;;;;;;;;;5.98;68.57;101555.69;5013899;28;3849;-96
2022/03/27 07:15:20;;;;;;;;;;;;;;;5.95;68.77;101546.16;5033602;28;3666;-96
2022/03/27 07:17:47;;;;;;;;;;;;;;;5.97;68.78;101546.84;5015529;28;1201;-95
2022/03/27 07:20:14;;;;;;;;;;;;;;;5.96;68.59;101533.63;5002585;28;3717;-96
2022/03/27 07:22:40;;;;;;;;;;;;;;;5.96;68.44;101541.66;5015589;28;1246;-96
2022/03/27 07:25:07;;;;;;;;;;;;;;;5.95;68.37;101543.47;5029324;28;2078;-96
2022/03/27 07:27:34;;;;;;;;;;;;;;;5.94;68.62;101541.78;5019332;28;1282;-95
2022/03/27 07:30:01;;;;;;;;;;;;;;;5.95;68.62;101543.47;5017322;28;3772;-96
2022/03/27 07:32:27;;;;;;;;;;;;;;;5.93;68.36;101553.50;5013102;28;3573;-96
2022/03/27 07:34:54;;;;;;;;;;;;;;;5.94;68.31;101548.97;5025508;28;4989;-96
2022/03/27 07:37:21;;;;;;;;;;;;;;;5.93;68.29;101550.81;5004926;28;4089;-96
2022/03/27 07:39:47;;;;;;;;;;;;;;;5.92;68.56;101549.13;5010997;28;2721;-96
2022/03/27 07:42:14;;;;;;;;;;;;;;;5.95;68.21;101545.31;5017195;28;3800;-95
2022/03/27 07:44:41;;;;;;;;;;;;;;;5.94;68.21;101548.97;5015193;28;3708;-96
2022/03/27 07:47:07;;;;;;;;;;;;;;;5.91;68.22;101545.63;5031524;28;4287;-95
2022/03/27 07:49:34;;;;;;;;;;;;;;;5.90;68.55;101538.59;5012282;28;3803;-96
2022/03/27 07:52:05;;;;;;;;;;;;;;;5.89;68.27;101542.28;5018151;28;1985;-96
2022/03/27 07:54:32;;;;;;;;;;;;;;;5.89;68.48;101536.09;5011078;28;3417;-96
2022/03/27 07:56:58;;;;;;;;;;;;;;;5.88;68.12;101534.41;5017752;28;1950;-96
2022/03/27 07:59:26;;;;;;;;;;;;;;;5.90;68.32;101537.75;5011362;28;3909;-96
2022/03/27 08:01:52;;;;;;;;;;;;;;;5.89;68.22;101530.75;5010987;28;4521;-95
2022/03/27 08:04:19;;;;;;;;;;;;;;;5.89;68.13;101536.09;5017469;28;2246;-96
2022/03/27 08:06:47;;;;;;;;;;;;;;;5.88;68.21;101537.94;5016406;28;3816;-96
2022/03/27 08:09:13;;;;;;;;;;;;;;;5.88;68.30;101529.91;5018067;28;1632;-96
2022/03/27 08:11:41;;;;;;;;;;;;;;;5.87;68.26;101533.56;5012953;28;3891;-95
2022/03/27 08:14:08;;;;;;;;;;;;;;;5.89;67.93;101530.75;5004768;28;3793;-96
2022/03/27 08:16:34;;;;;;;;;;;;;;;5.86;68.20;101529.22;5008714;28;4208;-96
2022/03/27 08:19:03;;;;;;;;;;;;;;;5.88;67.99;101524.56;5012766;28;4105;-96
2022/03/27 08:21:29;;;;;;;;;;;;;;;5.87;67.99;101514.84;4998773;28;1357;-96
2022/03/27 08:23:56;;;;;;;;;;;;;;;5.88;68.00;101515.69;5011426;28;3942;-96
2022/03/27 08:29:07;;;;;;;;;;;;;;;5.87;67.94;101517.53;5014219;28;3089;-96
2022/03/27 08:31:33;;;;;;;;;;;;;;;5.86;68.23;101515.03;5014201;28;3744;-95
2022/03/27 08:34:00;;;;;;;;;;;;;;;5.86;67.95;101526.56;5028712;28;2357;-96
2022/03/27 08:36:27;;;;;;;;;;;;;;;5.86;68.07;101526.56;5013794;28;3131;-96
2022/03/27 08:38:54;;;;;;;;;;;;;;;5.86;67.97;101531.09;5012487;28;2130;-96
2022/03/27 08:41:20;;;;;;;;;;;;;;;5.86;67.98;101537.25;4999380;28;1531;-96
2022/03/27 08:43:47;;;;;;;;;;;;;;;5.87;68.11;101535.41;5015332;28;3643;-96
2022/03/27 08:46:14;;;;;;;;;;;;;;;5.86;68.10;101523.06;5016404;28;1574;-96
2022/03/27 08:48:40;;;;;;;;;;;;;;;5.87;67.97;101530.06;5011468;28;3772;-96
2022/03/27 08:51:07;;;;;;;;;;;;;;;5.86;67.93;101526.56;5006302;28;1583;-96
2022/03/27 08:53:34;;;;;;;;;;;;;;;5.86;67.92;101528.41;5011585;28;3694;-96
2022/03/27 08:56:00;;;;;;;;;;;;;;;5.87;68.05;101530.06;5003983;28;3425;-96
2022/03/27 08:58:27;;;;;;;;;;;;;;;5.87;68.18;101530.06;5011147;28;1580;-95
2022/03/27 09:00:54;;;;;;;;;;;;;;;5.86;67.99;101531.91;5009829;28;4084;-96
2022/03/27 09:03:20;;;;;;;;;;;;;;;5.87;67.93;101530.06;5009191;28;1755;-96
2022/03/27 09:05:47;;;;;;;;;;;;;;;5.86;67.83;101531.91;5011036;28;4602;-96
2022/03/27 09:08:13;;;;;;;;;;;;;;;5.87;68.05;101525.56;5018543;28;4716;-96
2022/03/27 09:10:40;;;;;;;;;;;;;;;5.86;67.83;101520.38;5015102;28;4077;-96
2022/03/27 09:13:07;;;;;;;;;;;;;;;5.85;67.80;101516.88;5017931;28;1437;-96
2022/03/27 09:18:24;;;;;;;;;;;;;;;5.86;68.09;101515.03;5457865;23;2168;-96
2022/03/27 09:21:16;;;;;;;;;;;;;;;5.86;68.00;101510.53;5041626;28;734;-95
2022/03/27 09:24:08;;;;;;;;;;;;;;;5.86;67.84;101510.53;5041324;28;686;-95
2022/03/27 09:27:00;;;;;;;;;;;;;;;5.87;68.08;101509.50;5041607;28;2285;-95
2022/03/27 09:29:52;;;;;;;;;;;;;;;5.86;67.79;101515.88;5040189;28;616;-96
2022/03/27 09:32:45;;;;;;;;;;;;;;;5.88;67.88;101513.00;5040594;28;730;-96
2022/03/27 10:08:04;;;;;;;;;;;;;;;5.92;67.80;101491.13;5690089;22;2026;-96
2022/03/27 10:10:58;;;;;;;;;;;;;;;5.92;67.70;101484.97;5059617;28;703;-96
2022/03/27 14:38:02;;;;;;;;;;;;;;;6.99;68.68;101151.69;6080361;22;2067;-96
2022/03/27 16:25:08;;;;;;;;;;;;;;;7.73;70.09;101023.03;5482676;22;2073;-96
2022/03/27 18:06:27;;;;;;;;;;;;;;;8.17;70.93;100960.31;6101650;23;2335;-96
2022/03/27 19:51:15;;;;;;;;;;;;;;;8.24;71.20;100882.56;5016803;28;1522;-96
2022/03/27 19:54:07;;;;;;;;;;;;;;;8.24;71.13;100876.38;5019561;28;863;-96
2022/03/27 20:24:24;;;;;;;;;;;;;;;8.22;71.38;100878.41;5105529;23;1837;-96
2022/03/27 20:27:16;;;;;;;;;;;;;;;8.22;71.04;100873.88;5035952;28;1780;-96
2022/03/27 20:32:56;;;;;;;;;;;;;;;8.21;71.41;100877.59;5557874;23;1996;-96
2022/03/27 20:41:37;;;;;;;;;;;;;;;8.21;71.08;100864.16;5073650;28;1267;-96
2022/03/27 20:47:46;;;;;;;;;;;;;;;8.19;70.99;100861.66;5075221;28;675;-96
2022/03/27 20:53:47;;;;;;;;;;;;;;;8.19;71.07;100842.06;5075057;28;721;-96
2022/03/27 20:56:40;;;;;;;;;;;;;;;8.20;71.13;100835.66;5073882;28;1906;-96
